Time;durP1;ratioP1;P1;durP2;ratioP2;P2;SDS_P1;SDS_P2;PMS_P1;PMS_P2;Temp;Humidity;BMP_temperature;BMP_pressure;BME280_temperature;BME280_humidity;BME280_pressure;Samples;Min_cycle;Max_cycle;Signal;HPM_P1;HPM_P2
2021/09/03 00:01:22;;;;;;;6.03;3.17;;;;;;;;;;5014002;28;20061;-66
2021/09/03 00:03:48;;;;;;;6.00;2.60;;;;;;;;;;5013987;28;20053;-66
2021/09/03 00:06:14;;;;;;;7.75;3.10;;;;;;;;;;5013835;28;20032;-67
2021/09/03 00:08:39;;;;;;;5.50;3.00;;;;;;;;;;5013671;28;20033;-67
2021/09/03 00:11:05;;;;;;;6.38;3.20;;;;;;;;;;5013920;28;20478;-66
2021/09/03 00:13:31;;;;;;;8.77;3.40;;;;;;;;;;5014432;28;20065;-66
2021/09/03 00:15:57;;;;;;;5.50;3.17;;;;;;;;;;5014060;28;20080;-66
2021/09/03 00:18:22;;;;;;;8.15;3.40;;;;;;;;;;5014024;28;20025;-66
2021/09/03 00:20:48;;;;;;;7.50;3.80;;;;;;;;;;5013181;28;20028;-66
2021/09/03 00:23:14;;;;;;;7.15;3.70;;;;;;;;;;5014050;28;20029;-66
2021/09/03 00:25:39;;;;;;;6.70;4.10;;;;;;;;;;5013871;28;20036;-66
2021/09/03 00:28:05;;;;;;;6.40;3.72;;;;;;;;;;5013859;28;20018;-66
2021/09/03 00:30:31;;;;;;;7.97;4.60;;;;;;;;;;5013594;28;20030;-66
2021/09/03 00:32:56;;;;;;;8.63;3.75;;;;;;;;;;5013522;28;20375;-66
2021/09/03 00:35:21;;;;;;;9.70;4.28;;;;;;;;;;5013724;28;20026;-66
2021/09/03 00:37:47;;;;;;;5.95;3.97;;;;;;;;;;5012427;28;20374;-66
2021/09/03 00:40:13;;;;;;;7.30;4.10;;;;;;;;;;5013672;28;20382;-67
2021/09/03 00:42:38;;;;;;;10.35;4.82;;;;;;;;;;5013281;28;20536;-66
2021/09/03 00:45:06;;;;;;;8.50;4.78;;;;;;;;;;5013043;28;20037;-66
2021/09/03 00:47:31;;;;;;;9.75;4.85;;;;;;;;;;5013082;28;20034;-66
2021/09/03 00:49:56;;;;;;;8.80;4.88;;;;;;;;;;5018845;28;20029;-66
2021/09/03 00:52:23;;;;;;;11.52;5.20;;;;;;;;;;5033195;28;20026;-66
2021/09/03 00:54:50;;;;;;;13.38;5.40;;;;;;;;;;5033032;28;20026;-67
2021/09/03 00:57:17;;;;;;;11.68;5.88;;;;;;;;;;5029572;28;20095;-67
2021/09/03 00:59:42;;;;;;;14.20;5.72;;;;;;;;;;5013126;28;20421;-67
2021/09/03 01:02:08;;;;;;;11.02;5.75;;;;;;;;;;5014878;28;20041;-66
2021/09/03 01:04:34;;;;;;;13.43;5.72;;;;;;;;;;5012442;28;20501;-66
2021/09/03 01:06:59;;;;;;;11.35;6.18;;;;;;;;;;5012387;28;20592;-66
2021/09/03 01:09:25;;;;;;;9.20;6.05;;;;;;;;;;5012782;28;20502;-66
2021/09/03 01:11:50;;;;;;;10.25;6.05;;;;;;;;;;5012965;28;20022;-67
2021/09/03 01:14:17;;;;;;;11.60;6.30;;;;;;;;;;5012778;28;20030;-67
2021/09/03 01:16:43;;;;;;;11.65;6.40;;;;;;;;;;5012652;28;20028;-65
2021/09/03 01:19:08;;;;;;;14.85;7.05;;;;;;;;;;5012704;28;20030;-67
2021/09/03 01:21:34;;;;;;;11.13;6.60;;;;;;;;;;5012697;28;20372;-66
2021/09/03 01:23:59;;;;;;;11.05;6.30;;;;;;;;;;5012266;28;20029;-67
2021/09/03 01:26:26;;;;;;;12.70;6.55;;;;;;;;;;5012419;28;20049;-66
2021/09/03 01:28:51;;;;;;;12.13;6.60;;;;;;;;;;4994259;28;20129;-66
2021/09/03 01:31:17;;;;;;;15.27;7.25;;;;;;;;;;4999262;28;20200;-66
2021/09/03 01:33:42;;;;;;;12.40;7.07;;;;;;;;;;5012379;28;20167;-67
2021/09/03 01:36:08;;;;;;;14.25;6.90;;;;;;;;;;5012625;28;20474;-66
2021/09/03 01:38:34;;;;;;;13.18;6.07;;;;;;;;;;5012557;28;20030;-66
2021/09/03 01:41:00;;;;;;;123.63;33.47;;;;;;;;;;5011805;28;20029;-66
2021/09/03 01:43:25;;;;;;;12.43;7.30;;;;;;;;;;5012185;28;20030;-66
2021/09/03 01:45:52;;;;;;;11.90;6.90;;;;;;;;;;5011979;28;20040;-67
2021/09/03 01:48:18;;;;;;;13.98;7.07;;;;;;;;;;5012272;28;20036;-66
2021/09/03 01:50:43;;;;;;;12.43;7.88;;;;;;;;;;5011945;28;20381;-67
2021/09/03 01:53:09;;;;;;;11.82;6.95;;;;;;;;;;5011937;28;20030;-66
2021/09/03 01:55:34;;;;;;;12.77;7.28;;;;;;;;;;5012005;28;20378;-67
2021/09/03 01:58:00;;;;;;;12.70;7.32;;;;;;;;;;5012055;28;20010;-67
2021/09/03 02:00:26;;;;;;;13.23;7.93;;;;;;;;;;5012039;28;20021;-68
2021/09/03 02:02:51;;;;;;;12.32;7.47;;;;;;;;;;5012044;28;20022;-66
2021/09/03 02:05:17;;;;;;;12.93;8.13;;;;;;;;;;5012055;28;20586;-67
2021/09/03 02:07:42;;;;;;;16.25;8.13;;;;;;;;;;5011970;28;20022;-67
2021/09/03 02:10:09;;;;;;;13.43;7.88;;;;;;;;;;5010486;28;20066;-66
2021/09/03 02:12:34;;;;;;;12.95;7.75;;;;;;;;;;5011833;28;20088;-66
2021/09/03 02:15:00;;;;;;;13.27;7.25;;;;;;;;;;5011506;28;20033;-66
2021/09/03 02:17:25;;;;;;;13.48;7.63;;;;;;;;;;5011866;28;20018;-67
2021/09/03 02:19:51;;;;;;;15.23;7.53;;;;;;;;;;5011323;28;20025;-66
2021/09/03 02:22:16;;;;;;;12.57;7.70;;;;;;;;;;5011445;28;20060;-66
2021/09/03 02:24:42;;;;;;;13.52;7.35;;;;;;;;;;5011728;28;20030;-67
2021/09/03 02:27:07;;;;;;;17.80;8.60;;;;;;;;;;5011531;28;20034;-68
2021/09/03 02:29:33;;;;;;;12.35;7.10;;;;;;;;;;5011539;28;20040;-67
2021/09/03 02:31:58;;;;;;;12.18;7.38;;;;;;;;;;5011102;28;20033;-66
2021/09/03 02:34:24;;;;;;;15.80;7.82;;;;;;;;;;4993953;28;20021;-67
2021/09/03 02:36:50;;;;;;;13.23;7.65;;;;;;;;;;5011170;28;20100;-66
2021/09/03 02:39:16;;;;;;;12.65;7.47;;;;;;;;;;5011576;28;20033;-67
2021/09/03 02:41:41;;;;;;;15.43;7.40;;;;;;;;;;5011114;28;20025;-67
2021/09/03 02:44:07;;;;;;;15.05;7.78;;;;;;;;;;5011409;28;20022;-66
2021/09/03 02:46:32;;;;;;;12.48;7.50;;;;;;;;;;5011356;28;20084;-65
2021/09/03 02:48:58;;;;;;;12.73;7.63;;;;;;;;;;5011324;28;20045;-66
2021/09/03 02:51:24;;;;;;;12.45;7.00;;;;;;;;;;5011203;28;20034;-66
2021/09/03 02:53:49;;;;;;;12.68;7.30;;;;;;;;;;5010382;28;20113;-67
2021/09/03 02:56:15;;;;;;;11.20;7.03;;;;;;;;;;5010889;28;20032;-67
2021/09/03 02:58:40;;;;;;;12.55;7.25;;;;;;;;;;5011343;28;20025;-67
2021/09/03 03:01:05;;;;;;;13.63;7.00;;;;;;;;;;5010353;28;20088;-67
2021/09/03 03:03:31;;;;;;;15.30;7.85;;;;;;;;;;5011337;28;20029;-68
2021/09/03 03:05:56;;;;;;;12.65;6.78;;;;;;;;;;5011126;28;20025;-68
2021/09/03 03:08:22;;;;;;;14.43;7.63;;;;;;;;;;5011188;28;20033;-68
2021/09/03 03:10:47;;;;;;;12.30;7.68;;;;;;;;;;5010457;28;20060;-68
2021/09/03 03:13:25;;;;;;;12.77;7.68;;;;;;;;;;5010667;28;20018;-67
2021/09/03 03:15:51;;;;;;;14.45;7.97;;;;;;;;;;5009448;28;20033;-67
2021/09/03 03:18:17;;;;;;;15.52;7.70;;;;;;;;;;5011127;28;20398;-67
2021/09/03 03:20:47;;;;;;;14.45;8.60;;;;;;;;;;5010755;28;20152;-67
2021/09/03 03:23:14;;;;;;;18.88;8.32;;;;;;;;;;5011136;28;20056;-66
2021/09/03 03:25:40;;;;;;;14.45;8.63;;;;;;;;;;5011056;28;20025;-67
2021/09/03 03:28:06;;;;;;;14.98;8.77;;;;;;;;;;5010864;28;20033;-67
2021/09/03 03:30:32;;;;;;;19.40;8.60;;;;;;;;;;5010590;28;20026;-68
2021/09/03 03:32:57;;;;;;;15.30;8.18;;;;;;;;;;5010650;28;20105;-68
2021/09/03 03:35:23;;;;;;;15.50;8.30;;;;;;;;;;5010721;28;20115;-68
2021/09/03 03:37:49;;;;;;;15.43;8.60;;;;;;;;;;5010772;28;20100;-68
2021/09/03 03:40:15;;;;;;;14.30;8.20;;;;;;;;;;5010904;28;20113;-68
2021/09/03 03:42:41;;;;;;;16.75;8.80;;;;;;;;;;5010579;28;20060;-70
2021/09/03 03:45:07;;;;;;;18.38;9.25;;;;;;;;;;5010665;28;20034;-68
2021/09/03 03:47:32;;;;;;;17.27;9.13;;;;;;;;;;5010572;28;20021;-68
2021/09/03 03:49:58;;;;;;;17.00;8.43;;;;;;;;;;5010385;28;20022;-67
2021/09/03 03:52:23;;;;;;;17.83;9.48;;;;;;;;;;5008772;28;20041;-67
2021/09/03 03:54:49;;;;;;;17.92;9.43;;;;;;;;;;5010559;28;20026;-68
2021/09/03 03:57:14;;;;;;;17.92;10.25;;;;;;;;;;5010188;28;20025;-67
2021/09/03 03:59:39;;;;;;;21.02;9.98;;;;;;;;;;5010420;28;20116;-67
2021/09/03 04:02:05;;;;;;;17.40;8.75;;;;;;;;;;5009873;28;20022;-67
2021/09/03 04:04:30;;;;;;;14.45;9.10;;;;;;;;;;5010658;28;20053;-67
2021/09/03 04:06:56;;;;;;;19.13;9.88;;;;;;;;;;5010485;28;20433;-68
2021/09/03 04:09:22;;;;;;;18.05;9.60;;;;;;;;;;5010388;28;20042;-68
2021/09/03 04:11:47;;;;;;;18.98;8.90;;;;;;;;;;5010371;28;20040;-68
2021/09/03 04:14:16;;;;;;;16.63;9.73;;;;;;;;;;5013986;28;20026;-67
2021/09/03 04:16:42;;;;;;;17.38;9.32;;;;;;;;;;5013255;28;20021;-68
2021/09/03 04:19:07;;;;;;;16.17;8.80;;;;;;;;;;5013883;28;20033;-68
2021/09/03 04:21:32;;;;;;;16.13;8.55;;;;;;;;;;5014021;28;20041;-69
2021/09/03 04:23:58;;;;;;;15.25;8.70;;;;;;;;;;5013545;28;20386;-69
2021/09/03 04:26:23;;;;;;;17.52;8.90;;;;;;;;;;5013499;28;20029;-69
2021/09/03 04:28:49;;;;;;;16.20;8.55;;;;;;;;;;5013236;28;20025;-68
2021/09/03 04:31:15;;;;;;;16.10;8.77;;;;;;;;;;5012883;28;20034;-69
2021/09/03 04:33:40;;;;;;;15.57;8.32;;;;;;;;;;5013169;28;20022;-66
2021/09/03 04:36:06;;;;;;;16.85;8.27;;;;;;;;;;5013174;28;20444;-65
2021/09/03 04:38:31;;;;;;;15.85;7.65;;;;;;;;;;5012900;28;20430;-65
2021/09/03 04:40:57;;;;;;;15.88;8.60;;;;;;;;;;5013405;28;20478;-65
2021/09/03 04:43:23;;;;;;;13.45;7.60;;;;;;;;;;5013557;28;20025;-65
2021/09/03 04:45:49;;;;;;;14.70;7.30;;;;;;;;;;5013223;28;20520;-66
2021/09/03 04:48:14;;;;;;;14.95;8.25;;;;;;;;;;5012498;28;20033;-66
2021/09/03 04:50:40;;;;;;;12.32;6.32;;;;;;;;;;5012967;28;20021;-65
2021/09/03 04:53:06;;;;;;;11.98;6.68;;;;;;;;;;5012701;28;20087;-65
2021/09/03 04:55:32;;;;;;;12.50;6.38;;;;;;;;;;5012942;28;20477;-65
2021/09/03 04:57:57;;;;;;;15.23;7.28;;;;;;;;;;5013157;28;20025;-66
2021/09/03 05:00:23;;;;;;;12.52;6.53;;;;;;;;;;5012669;28;20028;-67
2021/09/03 05:02:48;;;;;;;10.98;6.00;;;;;;;;;;5011347;28;20057;-67
2021/09/03 05:05:14;;;;;;;9.40;5.63;;;;;;;;;;5013325;28;20026;-67
2021/09/03 05:07:40;;;;;;;9.82;5.50;;;;;;;;;;5012808;28;20367;-67
2021/09/03 05:10:07;;;;;;;10.63;5.47;;;;;;;;;;5012320;28;20081;-67
2021/09/03 05:12:34;;;;;;;10.43;4.95;;;;;;;;;;5012851;28;20034;-67
2021/09/03 05:15:02;;;;;;;10.38;5.10;;;;;;;;;;5012686;28;20092;-66
2021/09/03 05:17:27;;;;;;;10.32;5.13;;;;;;;;;;5013072;28;20470;-67
2021/09/03 05:19:52;;;;;;;9.07;4.80;;;;;;;;;;5012655;28;20076;-67
2021/09/03 05:22:18;;;;;;;7.90;4.28;;;;;;;;;;5012737;28;20026;-67
2021/09/03 05:24:43;;;;;;;8.57;4.30;;;;;;;;;;5012335;28;20022;-67
2021/09/03 05:27:09;;;;;;;7.57;4.03;;;;;;;;;;5012480;28;20517;-67
2021/09/03 05:29:34;;;;;;;6.85;3.67;;;;;;;;;;5012762;28;20060;-67
2021/09/03 05:31:59;;;;;;;6.03;3.95;;;;;;;;;;5012360;28;20544;-69
2021/09/03 05:34:25;;;;;;;6.88;3.95;;;;;;;;;;5012532;28;20018;-68
2021/09/03 05:36:50;;;;;;;5.80;3.80;;;;;;;;;;5012519;28;20022;-67
2021/09/03 05:39:15;;;;;;;7.07;4.18;;;;;;;;;;5012167;28;20022;-69
2021/09/03 05:41:41;;;;;;;6.78;4.40;;;;;;;;;;5012386;28;20155;-66
2021/09/03 05:44:06;;;;;;;6.72;4.20;;;;;;;;;;5011929;28;20701;-67
2021/09/03 05:46:32;;;;;;;9.63;4.90;;;;;;;;;;5012282;28;20026;-67
2021/09/03 05:48:57;;;;;;;12.07;5.07;;;;;;;;;;5012043;28;20065;-66
2021/09/03 05:51:22;;;;;;;12.75;5.85;;;;;;;;;;5012278;28;20033;-67
2021/09/03 05:53:48;;;;;;;10.15;5.10;;;;;;;;;;5012202;28;20053;-69
2021/09/03 05:56:13;;;;;;;7.72;4.55;;;;;;;;;;5011941;28;20026;-70
2021/09/03 05:58:39;;;;;;;7.00;4.70;;;;;;;;;;5012043;28;20097;-68
2021/09/03 06:01:04;;;;;;;8.23;5.18;;;;;;;;;;5011901;28;20018;-68
2021/09/03 06:03:30;;;;;;;7.63;4.47;;;;;;;;;;5012025;28;20100;-69
2021/09/03 06:05:56;;;;;;;8.38;4.30;;;;;;;;;;5011779;28;20505;-68
2021/09/03 06:08:22;;;;;;;8.88;4.38;;;;;;;;;;5011795;28;20513;-69
2021/09/03 06:10:47;;;;;;;8.70;4.65;;;;;;;;;;5011772;28;20089;-68
2021/09/03 06:13:13;;;;;;;8.48;3.80;;;;;;;;;;5011682;28;20048;-68
2021/09/03 06:15:38;;;;;;;9.05;4.45;;;;;;;;;;5011816;28;20033;-69
2021/09/03 06:18:04;;;;;;;8.85;4.32;;;;;;;;;;5011592;28;20536;-68
2021/09/03 06:20:29;;;;;;;7.57;4.03;;;;;;;;;;5011702;28;20382;-68
2021/09/03 06:22:55;;;;;;;6.05;3.80;;;;;;;;;;5011506;28;20057;-68
2021/09/03 06:25:20;;;;;;;7.22;3.35;;;;;;;;;;5011929;28;20401;-68
2021/09/03 06:27:46;;;;;;;6.28;3.60;;;;;;;;;;5011382;28;20041;-68
2021/09/03 06:30:11;;;;;;;5.68;3.28;;;;;;;;;;5014156;28;20021;-69
2021/09/03 06:32:37;;;;;;;8.02;3.72;;;;;;;;;;5013569;28;20418;-64
2021/09/03 06:35:04;;;;;;;5.82;3.40;;;;;;;;;;5010444;28;20053;-67
2021/09/03 06:37:31;;;;;;;7.32;3.17;;;;;;;;;;5011719;28;20429;-66
2021/09/03 06:39:57;;;;;;;5.93;3.10;;;;;;;;;;5011520;28;20030;-66
2021/09/03 06:42:23;;;;;;;5.78;3.05;;;;;;;;;;5020386;28;20167;-66
2021/09/03 06:44:49;;;;;;;7.78;3.08;;;;;;;;;;5011922;28;20101;-67
2021/09/03 06:47:16;;;;;;;5.38;3.00;;;;;;;;;;5010210;28;20141;-67
2021/09/03 06:49:42;;;;;;;6.18;3.00;;;;;;;;;;5011245;28;20600;-70
2021/09/03 06:52:08;;;;;;;5.07;3.10;;;;;;;;;;5011202;28;20116;-70
2021/09/03 06:54:35;;;;;;;6.10;2.97;;;;;;;;;;5011624;28;20032;-70
2021/09/03 06:57:01;;;;;;;5.65;2.92;;;;;;;;;;5010333;28;20609;-69
2021/09/03 06:59:27;;;;;;;6.05;2.65;;;;;;;;;;5010657;28;20101;-67
2021/09/03 07:01:53;;;;;;;5.20;2.47;;;;;;;;;;5010326;28;20171;-66
2021/09/03 07:04:19;;;;;;;4.38;2.28;;;;;;;;;;5011296;28;20759;-67
2021/09/03 07:06:45;;;;;;;4.93;2.20;;;;;;;;;;5011108;28;20029;-70
2021/09/03 07:09:10;;;;;;;5.13;2.42;;;;;;;;;;5010945;28;20038;-69
2021/09/03 07:11:36;;;;;;;5.28;2.75;;;;;;;;;;5009192;28;20359;-72
2021/09/03 07:14:03;;;;;;;4.82;2.63;;;;;;;;;;5008542;28;20064;-67
2021/09/03 07:16:30;;;;;;;4.72;2.50;;;;;;;;;;5011284;28;20037;-70
2021/09/03 07:18:56;;;;;;;4.78;2.28;;;;;;;;;;5012108;28;20029;-69
2021/09/03 07:21:23;;;;;;;6.30;2.60;;;;;;;;;;5009797;28;20026;-69
2021/09/03 07:23:49;;;;;;;4.85;2.33;;;;;;;;;;5009964;28;20029;-68
2021/09/03 07:26:14;;;;;;;5.32;2.45;;;;;;;;;;5009557;28;20608;-68
2021/09/03 07:28:40;;;;;;;3.85;2.10;;;;;;;;;;5011191;28;20359;-67
2021/09/03 07:31:06;;;;;;;4.53;2.70;;;;;;;;;;5010587;28;20080;-68
2021/09/03 07:33:32;;;;;;;3.88;2.13;;;;;;;;;;5010853;28;20028;-68
2021/09/03 07:35:58;;;;;;;4.15;2.05;;;;;;;;;;5009451;28;20030;-70
2021/09/03 07:38:23;;;;;;;5.35;2.70;;;;;;;;;;5009679;28;20022;-69
2021/09/03 07:40:49;;;;;;;5.20;2.45;;;;;;;;;;5009606;28;20026;-68
2021/09/03 07:43:16;;;;;;;4.10;2.38;;;;;;;;;;5010221;28;20033;-69
2021/09/03 07:45:42;;;;;;;5.45;2.30;;;;;;;;;;5010129;28;20029;-68
2021/09/03 07:48:08;;;;;;;3.78;2.22;;;;;;;;;;5013557;28;20037;-69
2021/09/03 07:50:34;;;;;;;3.85;2.25;;;;;;;;;;5011495;28;20041;-68
2021/09/03 07:53:01;;;;;;;4.60;2.22;;;;;;;;;;5014400;28;20482;-67
2021/09/03 07:55:27;;;;;;;6.70;2.40;;;;;;;;;;5013035;28;20068;-71
2021/09/03 07:57:53;;;;;;;3.92;2.03;;;;;;;;;;5014997;28;20478;-66
2021/09/03 08:00:18;;;;;;;4.75;2.50;;;;;;;;;;5014927;28;20037;-68
2021/09/03 08:02:44;;;;;;;4.25;2.20;;;;;;;;;;5015031;28;20025;-70
2021/09/03 08:05:09;;;;;;;6.78;2.90;;;;;;;;;;5014631;28;20109;-70
2021/09/03 08:07:35;;;;;;;4.88;2.45;;;;;;;;;;5014794;28;20049;-67
2021/09/03 08:10:01;;;;;;;7.32;2.90;;;;;;;;;;5014106;28;20037;-68
2021/09/03 08:12:26;;;;;;;4.57;2.50;;;;;;;;;;5013349;28;20033;-68
2021/09/03 08:14:52;;;;;;;5.25;2.47;;;;;;;;;;5013635;28;20053;-67
2021/09/03 08:17:18;;;;;;;4.47;2.40;;;;;;;;;;5012304;28;20748;-67
2021/09/03 08:19:44;;;;;;;4.20;2.67;;;;;;;;;;5013252;28;20080;-68
2021/09/03 08:22:10;;;;;;;5.40;2.67;;;;;;;;;;5013240;28;20061;-69
2021/09/03 08:24:35;;;;;;;4.97;2.45;;;;;;;;;;4995406;28;20111;-70
2021/09/03 08:27:01;;;;;;;3.70;2.17;;;;;;;;;;5013252;28;20299;-68
2021/09/03 08:29:27;;;;;;;3.53;2.00;;;;;;;;;;5012571;28;20555;-69
2021/09/03 08:31:52;;;;;;;4.95;2.20;;;;;;;;;;5013101;28;20453;-67
2021/09/03 08:34:18;;;;;;;5.28;2.72;;;;;;;;;;5012198;28;20041;-70
2021/09/03 08:36:43;;;;;;;4.72;2.00;;;;;;;;;;5013214;28;20037;-68
2021/09/03 08:39:09;;;;;;;5.50;2.08;;;;;;;;;;5012721;28;20053;-70
2021/09/03 08:41:36;;;;;;;4.90;2.30;;;;;;;;;;5012317;28;20021;-69
2021/09/03 08:44:02;;;;;;;5.80;2.28;;;;;;;;;;5012537;28;20450;-68
2021/09/03 08:46:28;;;;;;;7.63;2.30;;;;;;;;;;5014999;28;20022;-68
2021/09/03 08:48:53;;;;;;;5.93;2.60;;;;;;;;;;5011846;28;20029;-70
2021/09/03 08:51:20;;;;;;;5.72;2.55;;;;;;;;;;5013533;28;20072;-68
2021/09/03 08:53:46;;;;;;;6.30;2.63;;;;;;;;;;5013528;28;20052;-67
2021/09/03 08:56:13;;;;;;;6.70;2.47;;;;;;;;;;5013647;28;20051;-68
2021/09/03 08:58:40;;;;;;;7.20;2.55;;;;;;;;;;5016455;28;20026;-67
2021/09/03 09:01:11;;;;;;;7.78;2.50;;;;;;;;;;5014366;28;20355;-68
2021/09/03 09:03:42;;;;;;;5.72;2.35;;;;;;;;;;5012113;28;20033;-68
2021/09/03 09:06:09;;;;;;;4.40;2.50;;;;;;;;;;5010290;28;20034;-67
2021/09/03 09:08:36;;;;;;;4.32;2.33;;;;;;;;;;5013214;28;20498;-67
2021/09/03 09:11:10;;;;;;;5.90;2.15;;;;;;;;;;5021115;28;20390;-66
2021/09/03 09:13:44;;;;;;;4.38;2.40;;;;;;;;;;5013543;28;20026;-68
2021/09/03 09:16:12;;;;;;;4.50;2.70;;;;;;;;;;5012686;28;20030;-67
2021/09/03 09:18:38;;;;;;;4.88;2.40;;;;;;;;;;5011877;28;20026;-68
2021/09/03 09:21:15;;;;;;;5.90;2.40;;;;;;;;;;5012605;28;20038;-68
2021/09/03 09:23:46;;;;;;;4.60;2.17;;;;;;;;;;5015556;28;20026;-67
2021/09/03 09:26:13;;;;;;;6.05;2.30;;;;;;;;;;5010592;28;20026;-70
2021/09/03 09:28:39;;;;;;;7.25;2.75;;;;;;;;;;5011926;28;20037;-68
2021/09/03 09:31:05;;;;;;;4.95;2.53;;;;;;;;;;5012632;28;20040;-67
2021/09/03 09:33:31;;;;;;;4.93;2.20;;;;;;;;;;5011585;28;20342;-68
2021/09/03 09:35:59;;;;;;;5.13;2.65;;;;;;;;;;5010374;28;20038;-69
2021/09/03 09:38:29;;;;;;;5.10;2.17;;;;;;;;;;5011742;28;20482;-68
2021/09/03 09:41:04;;;;;;;4.03;2.03;;;;;;;;;;5012316;28;20470;-67
2021/09/03 09:43:35;;;;;;;5.03;2.25;;;;;;;;;;5011660;28;20037;-69
2021/09/03 09:46:22;;;;;;;4.40;1.88;;;;;;;;;;5012088;28;20357;-68
2021/09/03 09:48:50;;;;;;;3.97;2.13;;;;;;;;;;5011598;28;20017;-69
2021/09/03 09:51:30;;;;;;;3.85;1.73;;;;;;;;;;5011707;28;20486;-68
2021/09/03 09:53:58;;;;;;;3.83;2.05;;;;;;;;;;5012249;28;20037;-67
2021/09/03 09:56:25;;;;;;;3.55;2.03;;;;;;;;;;5011310;28;20497;-69
2021/09/03 09:58:53;;;;;;;4.13;2.15;;;;;;;;;;5009939;28;20029;-69
2021/09/03 10:01:20;;;;;;;4.28;1.83;;;;;;;;;;5011621;28;20514;-67
2021/09/03 10:03:47;;;;;;;3.00;1.65;;;;;;;;;;4993532;28;20033;-69
2021/09/03 10:06:17;;;;;;;4.57;2.13;;;;;;;;;;5011935;28;20018;-68
2021/09/03 10:08:45;;;;;;;3.45;1.98;;;;;;;;;;5011261;28;20026;-69
2021/09/03 10:11:20;;;;;;;3.78;1.70;;;;;;;;;;4999782;28;20044;-69
2021/09/03 10:13:49;;;;;;;3.03;1.42;;;;;;;;;;4994266;28;20085;-68
2021/09/03 10:16:15;;;;;;;3.20;1.80;;;;;;;;;;5010996;28;20033;-70
2021/09/03 10:18:43;;;;;;;2.75;1.30;;;;;;;;;;5011639;28;20053;-69
2021/09/03 10:21:10;;;;;;;3.22;1.63;;;;;;;;;;5010454;28;20041;-67
2021/09/03 10:23:55;;;;;;;3.70;1.60;;;;;;;;;;5010910;28;20113;-69
2021/09/03 10:26:26;;;;;;;2.65;1.38;;;;;;;;;;5011591;28;20413;-68
2021/09/03 10:29:13;;;;;;;2.58;1.25;;;;;;;;;;5011273;28;20057;-68
2021/09/03 10:32:04;;;;;;;1.85;0.90;;;;;;;;;;5011137;28;20048;-69
2021/09/03 10:34:50;;;;;;;4.53;1.13;;;;;;;;;;5009652;28;20033;-69
2021/09/03 10:37:15;;;;;;;3.72;1.15;;;;;;;;;;5006837;28;20018;-70
2021/09/03 10:40:07;;;;;;;1.63;0.82;;;;;;;;;;5012026;28;20028;-68
2021/09/03 10:45:01;;;;;;;2.20;1.00;;;;;;;;;;5012833;28;20029;-68
2021/09/03 10:47:34;;;;;;;2.38;0.88;;;;;;;;;;5010643;28;20029;-68
2021/09/03 10:50:17;;;;;;;2.20;0.85;;;;;;;;;;5012194;28;20021;-67
2021/09/03 10:53:05;;;;;;;1.38;0.80;;;;;;;;;;5012281;28;20057;-71
2021/09/03 10:55:49;;;;;;;1.67;0.80;;;;;;;;;;5010407;28;20017;-68
2021/09/03 10:58:37;;;;;;;3.20;0.77;;;;;;;;;;5010001;28;20017;-69
2021/09/03 11:01:12;;;;;;;1.63;0.80;;;;;;;;;;5012018;28;20030;-69
2021/09/03 11:03:44;;;;;;;1.60;0.77;;;;;;;;;;5010848;28;20044;-67
2021/09/03 11:06:24;;;;;;;2.58;0.90;;;;;;;;;;5011776;28;20504;-67
2021/09/03 11:08:52;;;;;;;3.58;1.42;;;;;;;;;;5009900;28;20412;-69
2021/09/03 11:11:28;;;;;;;1.60;0.77;;;;;;;;;;5010997;28;20036;-69
2021/09/03 11:14:10;;;;;;;1.17;0.52;;;;;;;;;;5010262;28;20095;-68
2021/09/03 11:16:47;;;;;;;2.92;0.70;;;;;;;;;;5008418;28;20018;-69
2021/09/03 11:19:16;;;;;;;2.33;0.80;;;;;;;;;;5011493;28;20105;-68
2021/09/03 11:21:47;;;;;;;3.30;0.80;;;;;;;;;;5013398;28;20037;-67
2021/09/03 11:24:18;;;;;;;1.95;0.73;;;;;;;;;;5015179;28;20038;-67
2021/09/03 11:26:45;;;;;;;1.35;0.60;;;;;;;;;;5015506;28;20030;-67
2021/09/03 11:29:22;;;;;;;1.70;0.70;;;;;;;;;;5015345;28;20374;-68
2021/09/03 11:32:03;;;;;;;2.28;0.63;;;;;;;;;;5015260;28;20018;-68
2021/09/03 11:35:03;;;;;;;2.08;0.65;;;;;;;;;;5015286;28;20109;-70
2021/09/03 11:37:44;;;;;;;2.05;0.57;;;;;;;;;;5014854;28;20042;-68
2021/09/03 11:40:30;;;;;;;2.08;0.85;;;;;;;;;;5010981;28;20113;-70
2021/09/03 11:43:06;;;;;;;1.42;0.50;;;;;;;;;;5014451;28;20405;-69
2021/09/03 11:45:34;;;;;;;1.52;0.70;;;;;;;;;;5013998;28;20470;-68
2021/09/03 11:48:02;;;;;;;1.92;0.75;;;;;;;;;;5013084;28;20032;-68
2021/09/03 11:50:39;;;;;;;1.42;0.50;;;;;;;;;;5013920;28;20033;-68
2021/09/03 11:53:08;;;;;;;1.30;0.60;;;;;;;;;;5014611;28;20396;-68
2021/09/03 11:55:36;;;;;;;1.83;0.57;;;;;;;;;;4999379;28;20366;-67
2021/09/03 11:58:12;;;;;;;1.02;0.40;;;;;;;;;;5014428;28;20025;-68
2021/09/03 12:00:45;;;;;;;2.90;0.70;;;;;;;;;;5013874;28;20041;-69
2021/09/03 12:03:13;;;;;;;2.03;0.70;;;;;;;;;;5013990;28;20030;-67
2021/09/03 12:05:40;;;;;;;0.70;0.50;;;;;;;;;;5013952;28;20048;-69
2021/09/03 12:08:26;;;;;;;1.38;0.63;;;;;;;;;;5013904;28;20034;-68
2021/09/03 12:11:01;;;;;;;5.07;0.50;;;;;;;;;;4994317;28;20046;-68
2021/09/03 12:13:28;;;;;;;2.63;0.70;;;;;;;;;;4994225;28;20045;-68
2021/09/03 12:16:07;;;;;;;0.55;0.30;;;;;;;;;;5011945;28;20156;-69
2021/09/03 12:18:38;;;;;;;2.55;0.70;;;;;;;;;;4996168;28;20080;-69
2021/09/03 12:21:32;;;;;;;1.25;0.60;;;;;;;;;;5013029;28;20033;-69
2021/09/03 12:24:01;;;;;;;0.70;0.50;;;;;;;;;;5011389;28;20061;-68
2021/09/03 12:26:35;;;;;;;1.90;0.60;;;;;;;;;;5012475;28;20034;-68
2021/09/03 12:29:02;;;;;;;1.52;0.50;;;;;;;;;;5012130;28;20479;-70
2021/09/03 12:31:31;;;;;;;1.83;0.65;;;;;;;;;;5012881;28;20022;-67
2021/09/03 12:34:02;;;;;;;2.38;0.65;;;;;;;;;;5012259;28;20029;-68
2021/09/03 12:36:30;;;;;;;0.95;0.55;;;;;;;;;;5012827;28;20037;-68
2021/09/03 12:39:02;;;;;;;2.92;0.60;;;;;;;;;;5012898;28;20051;-67
2021/09/03 12:41:33;;;;;;;0.82;0.40;;;;;;;;;;5013562;28;20033;-67
2021/09/03 12:44:02;;;;;;;2.15;0.68;;;;;;;;;;5013987;28;20113;-67
2021/09/03 12:46:40;;;;;;;0.75;0.45;;;;;;;;;;5013437;28;20053;-68
2021/09/03 12:49:12;;;;;;;2.08;0.55;;;;;;;;;;5013333;28;20536;-67
2021/09/03 12:51:47;;;;;;;1.25;0.50;;;;;;;;;;5012858;28;20032;-66
2021/09/03 12:54:14;;;;;;;2.45;0.65;;;;;;;;;;5013116;28;20100;-68
2021/09/03 12:56:41;;;;;;;1.40;0.55;;;;;;;;;;5012226;28;20025;-67
2021/09/03 12:59:07;;;;;;;1.52;0.70;;;;;;;;;;5012998;28;20057;-68
2021/09/03 13:01:36;;;;;;;1.60;0.80;;;;;;;;;;5012535;28;20061;-67
2021/09/03 13:04:12;;;;;;;1.40;0.70;;;;;;;;;;4993477;28;20034;-68
2021/09/03 13:06:38;;;;;;;1.20;0.60;;;;;;;;;;5006340;28;20112;-67
2021/09/03 13:09:03;;;;;;;1.13;0.50;;;;;;;;;;5001646;28;20124;-68
2021/09/03 13:11:29;;;;;;;1.33;0.60;;;;;;;;;;5012763;28;20573;-69
2021/09/03 13:13:54;;;;;;;1.50;0.50;;;;;;;;;;5016360;28;20022;-67
2021/09/03 13:16:20;;;;;;;2.50;0.73;;;;;;;;;;5025094;28;20041;-68
2021/09/03 13:18:45;;;;;;;0.77;0.52;;;;;;;;;;5016095;28;20555;-69
2021/09/03 13:21:11;;;;;;;1.95;0.70;;;;;;;;;;5013573;28;20033;-68
2021/09/03 13:23:36;;;;;;;1.25;0.60;;;;;;;;;;5013374;28;20018;-68
2021/09/03 13:26:03;;;;;;;1.77;0.80;;;;;;;;;;5013534;28;20064;-69
2021/09/03 13:28:29;;;;;;;1.30;0.50;;;;;;;;;;5012272;28;20034;-72
2021/09/03 13:30:54;;;;;;;1.15;0.65;;;;;;;;;;5013599;28;20030;-68
2021/09/03 13:33:20;;;;;;;1.48;0.50;;;;;;;;;;5012388;28;20109;-69
2021/09/03 13:35:45;;;;;;;1.85;0.50;;;;;;;;;;5012702;28;20095;-71
2021/09/03 13:38:11;;;;;;;1.13;0.65;;;;;;;;;;5016850;28;20096;-69
2021/09/03 13:40:38;;;;;;;2.80;0.60;;;;;;;;;;5011803;28;20441;-71
2021/09/03 13:43:03;;;;;;;1.10;0.60;;;;;;;;;;5011200;28;20157;-71
2021/09/03 13:45:36;;;;;;;0.85;0.55;;;;;;;;;;5010353;28;20132;-71
2021/09/03 13:48:02;;;;;;;4.10;0.73;;;;;;;;;;5010842;28;20097;-69
2021/09/03 13:50:27;;;;;;;1.83;0.60;;;;;;;;;;5011937;28;20116;-70
2021/09/03 13:52:53;;;;;;;1.30;0.57;;;;;;;;;;5012021;28;20021;-68
2021/09/03 13:55:18;;;;;;;8.60;0.95;;;;;;;;;;5010814;28;20038;-70
2021/09/03 13:57:44;;;;;;;1.20;0.60;;;;;;;;;;5011174;28;20025;-70
2021/09/03 14:00:11;;;;;;;2.28;0.93;;;;;;;;;;5010874;28;20049;-67
2021/09/03 14:02:36;;;;;;;1.15;0.43;;;;;;;;;;5010942;28;20030;-69
2021/09/03 14:05:02;;;;;;;1.42;0.63;;;;;;;;;;5011912;28;20524;-71
2021/09/03 14:07:28;;;;;;;1.20;0.60;;;;;;;;;;5011852;28;20026;-70
2021/09/03 14:09:53;;;;;;;0.55;0.47;;;;;;;;;;5011109;28;20038;-67
2021/09/03 14:12:20;;;;;;;2.25;0.50;;;;;;;;;;5011098;28;20442;-68
2021/09/03 14:14:46;;;;;;;1.00;0.50;;;;;;;;;;5010812;28;20032;-68
2021/09/03 14:17:11;;;;;;;1.15;0.50;;;;;;;;;;5011485;28;20493;-69
2021/09/03 14:19:40;;;;;;;1.20;0.50;;;;;;;;;;5011477;28;20093;-69
2021/09/03 14:22:05;;;;;;;1.33;0.50;;;;;;;;;;5011547;28;20022;-69
2021/09/03 14:24:31;;;;;;;3.20;0.60;;;;;;;;;;5010849;28;20060;-71
2021/09/03 14:26:57;;;;;;;0.55;0.40;;;;;;;;;;5011392;28;20079;-69
2021/09/03 14:29:22;;;;;;;1.50;0.70;;;;;;;;;;5011106;28;20080;-70
2021/09/03 14:31:48;;;;;;;1.10;0.50;;;;;;;;;;5011988;28;20088;-70
2021/09/03 14:34:13;;;;;;;1.42;0.50;;;;;;;;;;5011675;28;20076;-68
2021/09/03 14:36:39;;;;;;;1.48;0.70;;;;;;;;;;5011146;28;20049;-68
2021/09/03 14:39:06;;;;;;;1.40;0.70;;;;;;;;;;5011438;28;20056;-67
2021/09/03 14:41:32;;;;;;;1.45;0.40;;;;;;;;;;5010171;28;20067;-69
2021/09/03 14:43:58;;;;;;;0.95;0.55;;;;;;;;;;5011218;28;20033;-71